Bf Caroda — V2CV5 — position and weather

sailwx.info

Track history (hours):
 
Tides and Currents Weather Stations Pressure Air Temp Water Temp Dewpoint Dewpoint Depression Visibility Wind Speed Wind Dir Waves Ship Positions

Bf Caroda

Last reported at 2014-Sep-21 12:31 UTC. Time now 2014-Sep-21 16:10 UTC.
Position N 36°49' W 001°38'.

Length 134 m; draft 9.3 m.

Type: Ship (hazmat cat A). MMSI: 304678000.

Date/timePositionNaut miles runAvg speedWind from/ knotsBaromVisibWave heightAir tempDewpointWater temp
2014-Sep-21 12:31N 36°49' W 001°38'5814.3
2014-Sep-21 08:28N 37°27' W 000°44'1515.9
2014-Sep-21 07:33N 37°37' W 000°31'2216.0
2014-Sep-21 06:11N 37°56' W 000°16'1315.9
2014-Sep-21 05:22N 38°07' W 000°07'1315.8
2014-Sep-21 04:32N 38°18' E 000°02'6713.5
2014-Sep-20 23:33N 39°24' W 000°14'5 3.9
2014-Sep-20 22:11N 39°27' W 000°19'0 0.0
2014-Sep-20 21:32N 39°27' W 000°19'0 0.0
2014-Sep-20 20:32N 39°27' W 000°19'0 0.0
2014-Sep-20 19:31N 39°27' W 000°19'0 0.0
2014-Sep-20 18:31N 39°27' W 000°19'0 0.0
2014-Sep-20 17:33N 39°27' W 000°19'0 0.0
2014-Sep-20 15:26N 39°27' W 000°19'0 0.0
2014-Sep-20 14:23N 39°27' W 000°19'0 0.0
2014-Sep-20 13:32N 39°27' W 000°19'0 0.0
2014-Sep-20 12:25N 39°27' W 000°19'0 0.0
2014-Sep-20 11:28N 39°27' W 000°19'0 0.0
2014-Sep-20 09:18N 39°27' W 000°19'0 0.0
2014-Sep-20 08:32N 39°27' W 000°19'1 0.6
2014-Sep-20 07:33N 39°27' W 000°19'1010.2
2014-Sep-20 06:33N 39°31' W 000°07'4916.2
2014-Sep-20 03:33N 40°05' E 000°38'1717.0
2014-Sep-20 02:33N 40°16' E 000°54'1716.6
2014-Sep-20 01:33N 40°27' E 001°11'1616.2
2014-Sep-20 00:33N 40°37' E 001°28'1616.1
2014-Sep-19 23:33N 40°48' E 001°43'1716.7
2014-Sep-19 22:33N 41°00' E 001°59'1716.8
2014-Sep-19 21:33N 41°10' E 002°17'1716.5
2014-Sep-19 20:32N 41°21' E 002°34'1616.4
2014-Sep-19 19:33N 41°30' E 002°51'3716.7
2014-Sep-19 17:21N 41°57' E 003°26'2116.7
2014-Sep-19 16:05N 42°11' E 003°46'1315.7
2014-Sep-19 15:17N 42°20' E 003°58'1216.4
2014-Sep-19 14:32N 42°28' E 004°10'2320.1
2014-Sep-19 13:25N 42°44' E 004°32'1111.9
2014-Sep-19 12:30N 42°52' E 004°42'1616.5
2014-Sep-19 11:34N 43°04' E 004°56'1515.2
2014-Sep-19 10:34N 43°16' E 005°09'9 4.7
2014-Sep-19 08:33N 43°21' E 005°20'0 0.0
2014-Sep-19 07:33N 43°21' E 005°20'0 0.0
2014-Sep-19 06:32N 43°21' E 005°20'0 0.0
2014-Sep-19 05:32N 43°21' E 005°20'0 0.0
2014-Sep-19 04:31N 43°21' E 005°20'0 0.0
2014-Sep-19 03:31N 43°21' E 005°20'0 0.0
2014-Sep-19 02:33N 43°21' E 005°20'0 0.0
2014-Sep-19 01:30N 43°21' E 005°20'0 0.0
2014-Sep-19 00:33N 43°21' E 005°20'0 0.0
2014-Sep-18 23:32N 43°21' E 005°20'0 0.0
2014-Sep-18 22:32N 43°21' E 005°20'0 0.0
2014-Sep-18 21:31N 43°21' E 005°20'0 0.0
2014-Sep-18 20:31N 43°21' E 005°20'0 0.0
2014-Sep-18 19:33N 43°21' E 005°20'0 0.0
2014-Sep-18 18:33N 43°21' E 005°20'0 0.0
2014-Sep-18 17:33N 43°21' E 005°20'7 7.3
2014-Sep-18 16:33N 43°17' E 005°12'1714.7
2014-Sep-18 15:26N 43°03' E 004°59'1315.0
2014-Sep-18 14:32N 42°54' E 004°45'1614.6
2014-Sep-18 13:26N 42°43' E 004°30'1714.9
2014-Sep-18 12:18N 42°31' E 004°13'1314.9
2014-Sep-18 11:26N 42°22' E 004°01'1315.0
2014-Sep-18 10:33N 42°12' E 003°48'2015.2
2014-Sep-18 09:13N 41°59' E 003°28'1014.9
2014-Sep-18 08:33N 41°52' E 003°18'61 3.5
2014-Sep-17 15:24N 41°19' E 002°10'2010.0
2014-Sep-17 13:23N 40°59' E 002°04'1516.1
2014-Sep-17 12:27N 40°46' E 001°56'2016.5
2014-Sep-17 11:13N 40°27' E 001°45'1615.9
2014-Sep-17 10:13N 40°12' E 001°38'1317.0
2014-Sep-17 09:28N 40°00' E 001°32'  
2014-Sep-13 21:16N 35°57' W 005°15'  
Track history (hours):
 
Tides and Currents Weather Stations Pressure Air Temp Water Temp Dewpoint Dewpoint Depression Visibility Wind Speed Wind Dir Waves Ship Positions

Bf Caroda

Last reported at 2014-Sep-21 12:31 UTC. Time now 2014-Sep-21 16:10 UTC.
Position N 36°49' W 001°38'.

Length 134 m; draft 9.3 m.

Type: Ship (hazmat cat A). MMSI: 304678000.

Date/timePositionNaut miles runAvg speedWind from/ knotsBaromVisibWave heightAir tempDewpointWater temp
2014-Sep-21 12:31N 36°49' W 001°38'5814.3
2014-Sep-21 08:28N 37°27' W 000°44'1515.9
2014-Sep-21 07:33N 37°37' W 000°31'2216.0
2014-Sep-21 06:11N 37°56' W 000°16'1315.9
2014-Sep-21 05:22N 38°07' W 000°07'1315.8
2014-Sep-21 04:32N 38°18' E 000°02'6713.5
2014-Sep-20 23:33N 39°24' W 000°14'5 3.9
2014-Sep-20 22:11N 39°27' W 000°19'0 0.0
2014-Sep-20 21:32N 39°27' W 000°19'0 0.0
2014-Sep-20 20:32N 39°27' W 000°19'0 0.0
2014-Sep-20 19:31N 39°27' W 000°19'0 0.0
2014-Sep-20 18:31N 39°27' W 000°19'0 0.0
2014-Sep-20 17:33N 39°27' W 000°19'0 0.0
2014-Sep-20 15:26N 39°27' W 000°19'0 0.0
2014-Sep-20 14:23N 39°27' W 000°19'0 0.0
2014-Sep-20 13:32N 39°27' W 000°19'0 0.0
2014-Sep-20 12:25N 39°27' W 000°19'0 0.0
2014-Sep-20 11:28N 39°27' W 000°19'0 0.0
2014-Sep-20 09:18N 39°27' W 000°19'0 0.0
2014-Sep-20 08:32N 39°27' W 000°19'1 0.6
2014-Sep-20 07:33N 39°27' W 000°19'1010.2
2014-Sep-20 06:33N 39°31' W 000°07'4916.2
2014-Sep-20 03:33N 40°05' E 000°38'1717.0
2014-Sep-20 02:33N 40°16' E 000°54'1716.6
2014-Sep-20 01:33N 40°27' E 001°11'1616.2
2014-Sep-20 00:33N 40°37' E 001°28'1616.1
2014-Sep-19 23:33N 40°48' E 001°43'1716.7
2014-Sep-19 22:33N 41°00' E 001°59'1716.8
2014-Sep-19 21:33N 41°10' E 002°17'1716.5
2014-Sep-19 20:32N 41°21' E 002°34'1616.4
2014-Sep-19 19:33N 41°30' E 002°51'3716.7
2014-Sep-19 17:21N 41°57' E 003°26'2116.7
2014-Sep-19 16:05N 42°11' E 003°46'1315.7
2014-Sep-19 15:17N 42°20' E 003°58'1216.4
2014-Sep-19 14:32N 42°28' E 004°10'2320.1
2014-Sep-19 13:25N 42°44' E 004°32'1111.9
2014-Sep-19 12:30N 42°52' E 004°42'1616.5
2014-Sep-19 11:34N 43°04' E 004°56'1515.2
2014-Sep-19 10:34N 43°16' E 005°09'9 4.7
2014-Sep-19 08:33N 43°21' E 005°20'0 0.0
2014-Sep-19 07:33N 43°21' E 005°20'0 0.0
2014-Sep-19 06:32N 43°21' E 005°20'0 0.0
2014-Sep-19 05:32N 43°21' E 005°20'0 0.0
2014-Sep-19 04:31N 43°21' E 005°20'0 0.0
2014-Sep-19 03:31N 43°21' E 005°20'0 0.0
2014-Sep-19 02:33N 43°21' E 005°20'0 0.0
2014-Sep-19 01:30N 43°21' E 005°20'0 0.0
2014-Sep-19 00:33N 43°21' E 005°20'0 0.0
2014-Sep-18 23:32N 43°21' E 005°20'0 0.0
2014-Sep-18 22:32N 43°21' E 005°20'0 0.0
2014-Sep-18 21:31N 43°21' E 005°20'0 0.0
2014-Sep-18 20:31N 43°21' E 005°20'0 0.0
2014-Sep-18 19:33N 43°21' E 005°20'0 0.0
2014-Sep-18 18:33N 43°21' E 005°20'0 0.0
2014-Sep-18 17:33N 43°21' E 005°20'7 7.3
2014-Sep-18 16:33N 43°17' E 005°12'1714.7
2014-Sep-18 15:26N 43°03' E 004°59'1315.0
2014-Sep-18 14:32N 42°54' E 004°45'1614.6
2014-Sep-18 13:26N 42°43' E 004°30'1714.9
2014-Sep-18 12:18N 42°31' E 004°13'1314.9
2014-Sep-18 11:26N 42°22' E 004°01'1315.0
2014-Sep-18 10:33N 42°12' E 003°48'2015.2
2014-Sep-18 09:13N 41°59' E 003°28'1014.9
2014-Sep-18 08:33N 41°52' E 003°18'61 3.5
2014-Sep-17 15:24N 41°19' E 002°10'2010.0
2014-Sep-17 13:23N 40°59' E 002°04'1516.1
2014-Sep-17 12:27N 40°46' E 001°56'2016.5
2014-Sep-17 11:13N 40°27' E 001°45'1615.9
2014-Sep-17 10:13N 40°12' E 001°38'1317.0
2014-Sep-17 09:28N 40°00' E 001°32'  
2014-Sep-13 21:16N 35°57' W 005°15'  

Dump ship's entire track history